Weather at Ashgabat International Airport

Public forecast

Using degrees Celsius for public forecast. Weather courtesy of forecast.io.

Current aviation weather report (METAR) for Ashgabat International Airport

2024/05/28 03:00 (retrieved 41 minutes ago)

UTAA 280300Z 29010KT 8000 FEW033 23/14 Q1017 R88/70D NOSIG

Closest aviation forecast (TAF) to Ashgabat International Airport

Forecast is more than 12 hours old.

Closest forecast is Kirkuk Air Base, 690.3 nm (1,278.4 km) W.

2024/05/27 12:06 (retrieved 16 hours ago)

TAF ORKK 271100Z 2712/2812 34008KT CAVOK